Beerse, Belgium
Current Conditions -  °F | °C
As of 4:25 PM on Wednesday 26 Nov 2014 (Local Time) from EHGR Reporting Station
Haze Haze  
Wind Chill:   Ceiling: 1400
Heat Index:   Visibility: 4mi
Dew Point:   Wind: 8mph
Humidity: 93%   Direction: 120°ESE
Pressure: 29.88"   Gusts: NA
Location:  51.32°N, 4.85°E
Report Text: EHGR 261525Z AUTO 12007KT 7000 BR OVC014 06/05 Q1012 REDZ GRN
Loading
Personal Weather Stations






























Interactive Weather Map New forecast layout! Learn more

10-Day Weather Forecast

Advertisements
Track Severe Weather on mobile